NORTHEAST SUFFOLK  -  Rip Current Statement Rip Current Statement        NORTHWEST SUFFOLK  -  Rip Current Statement Rip Current Statement        SOUTHEAST SUFFOLK  -  Rip Current Statement Rip Current Statement        SOUTHWEST SUFFOLK  -  Rip Current Statement Rip Current Statement      

Active alerts

Northwest Suffolk
  Details for Northwest Suffolk Rip Current Statement
Southwest Suffolk
  Details for Southwest Suffolk Rip Current Statement
Northeast Suffolk
  Details for Northeast Suffolk Rip Current Statement
Southeast Suffolk
  Details for Southeast Suffolk Rip Current Statement


WXM80 ListenWXM80 Stop

You find our weather info also at:

UK Metoffice

WeatherCloud

Weather Underground

Northeastern Weather Network

AWEKAS

Citizen Weather Observer Program (CWOP)

HAMweather, WeatherForYou, PWS Weather


Weather Underground History page Text

Daily Summary for February 17, 2018 Units:  Both    English   Metric
« Previous Day
Next Day »
Daily Weekly Monthly Yearly Custom
  High: Low: Average:
Temperature: 38.2 °F /  3.4 °C 30.5 °F /  -0.8 °C 34.3 °F /  1.3 °C
Dew Point: 32.2 °F /  0.1 °C 21.2 °F /  -6 °C 26.5 °F /  -3.1 °C
Humidity: 97 % 57 % 74 %
Wind Speed: 9.1 mph /  14.6 km/h - 3.3 mph /  5.3 km/h
Wind Gust: 14.0 mph /  22.5 km/h - -
Wind:- - SE
Pressure: 30.18 in /  1021.9 hPa 29.76 in /  1007.7 hPa -
Precipitation: 0.37 in /  9.4 mm    
Historical Graphs
 
 
Tabular Data for February 17, 2018
Time Temperature Dew Point Pressure Wind Wind Speed Wind Gust Humidity Rainfall Rate (Hourly)
00:01 36.4 °F /  2.4 °C 28.9 °F /  -1.7 °C 29.91 in /  1012.8 hPa NNW 1.2 mph /  1.9 km/h 3.5 mph /  5.6 km/h 74 % 0.00 in /  0 mm
00:02 36.4 °F /  2.4 °C 28.9 °F /  -1.7 °C 29.91 in /  1012.8 hPa NNW 0.1 mph /  0.2 km/h 3.5 mph /  5.6 km/h 74 % 0.00 in /  0 mm
00:07 36.3 °F /  2.4 °C 29.1 °F /  -1.6 °C 29.92 in /  1013.1 hPa NW 0.3 mph /  0.5 km/h 1.2 mph /  1.9 km/h 75 % 0.00 in /  0 mm
00:12 36.2 °F /  2.3 °C 29.0 °F /  -1.7 °C 29.92 in /  1013.1 hPa NNW 0.4 mph /  0.6 km/h 3.0 mph /  4.8 km/h 75 % 0.00 in /  0 mm
00:17 36.0 °F /  2.2 °C 28.8 °F /  -1.8 °C 29.92 in /  1013.1 hPa NNW 3.1 mph /  5 km/h 4.6 mph /  7.4 km/h 75 % 0.00 in /  0 mm
00:23 35.9 °F /  2.2 °C 28.4 °F /  -2 °C 29.92 in /  1013.1 hPa NNW 1.2 mph /  1.9 km/h 3.5 mph /  5.6 km/h 74 % 0.00 in /  0 mm
00:28 35.8 °F /  2.1 °C 28.3 °F /  -2.1 °C 29.92 in /  1013.1 hPa NNW 2.6 mph /  4.2 km/h 5.8 mph /  9.3 km/h 74 % 0.00 in /  0 mm
00:33 35.7 °F /  2.1 °C 27.9 °F /  -2.3 °C 29.92 in /  1013.1 hPa NW 2.0 mph /  3.2 km/h 5.8 mph /  9.3 km/h 73 % 0.00 in /  0 mm
00:38 35.6 °F /  2 °C 28.1 °F /  -2.2 °C 29.93 in /  1013.4 hPa North 3.0 mph /  4.8 km/h 4.6 mph /  7.4 km/h 74 % 0.00 in /  0 mm
00:43 35.5 °F /  1.9 °C 28.7 °F /  -1.8 °C 29.93 in /  1013.4 hPa NW 3.0 mph /  4.8 km/h 5.8 mph /  9.3 km/h 76 % 0.00 in /  0 mm
00:48 35.5 °F /  1.9 °C 28.4 °F /  -2 °C 29.93 in /  1013.4 hPa North 4.1 mph /  6.6 km/h 11.5 mph /  18.5 km/h 75 % 0.00 in /  0 mm
00:53 35.4 °F /  1.9 °C 27.9 °F /  -2.3 °C 29.94 in /  1013.8 hPa North 4.1 mph /  6.6 km/h 8.1 mph /  13 km/h 74 % 0.00 in /  0 mm
00:58 35.3 °F /  1.8 °C 27.2 °F /  -2.7 °C 29.94 in /  1013.8 hPa North 6.6 mph /  10.6 km/h 12.7 mph /  20.4 km/h 72 % 0.00 in /  0 mm
01:03 35.4 °F /  1.9 °C 27.3 °F /  -2.6 °C 29.94 in /  1013.8 hPa North 5.1 mph /  8.2 km/h 8.1 mph /  13 km/h 72 % 0.00 in /  0 mm
01:08 35.4 °F /  1.9 °C 27.3 °F /  -2.6 °C 29.95 in /  1014.1 hPa NNE 5.9 mph /  9.5 km/h 9.2 mph /  14.8 km/h 72 % 0.00 in /  0 mm
01:13 35.4 °F /  1.9 °C 27.6 °F /  -2.4 °C 29.95 in /  1014.1 hPa North 4.7 mph /  7.6 km/h 6.9 mph /  11.1 km/h 73 % 0.00 in /  0 mm
01:18 35.3 °F /  1.8 °C 27.5 °F /  -2.5 °C 29.95 in /  1014.1 hPa North 7.3 mph /  11.7 km/h 13.8 mph /  22.2 km/h 73 % 0.00 in /  0 mm
01:23 35.3 °F /  1.8 °C 26.1 °F /  -3.3 °C 29.95 in /  1014.1 hPa NNW 7.6 mph /  12.2 km/h 11.5 mph /  18.5 km/h 69 % 0.00 in /  0 mm
01:28 35.3 °F /  1.8 °C 26.1 °F /  -3.3 °C 29.96 in /  1014.4 hPa North 5.5 mph /  8.9 km/h 10.4 mph /  16.7 km/h 69 % 0.00 in /  0 mm
01:33 35.2 °F /  1.8 °C 26.0 °F /  -3.3 °C 29.97 in /  1014.8 hPa NNE 5.1 mph /  8.2 km/h 9.2 mph /  14.8 km/h 69 % 0.00 in /  0 mm
01:38 35.2 °F /  1.8 °C 26.4 °F /  -3.1 °C 29.98 in /  1015.1 hPa NNW 5.0 mph /  8 km/h 6.0 mph /  9.7 km/h 70 % 0.00 in /  0 mm
01:44 35.2 °F /  1.8 °C 27.1 °F /  -2.7 °C 29.98 in /  1015.1 hPa NNW 1.9 mph /  3.1 km/h 5.8 mph /  9.3 km/h 72 % 0.00 in /  0 mm
01:49 35.1 °F /  1.7 °C 27.0 °F /  -2.8 °C 29.99 in /  1015.5 hPa NNW 0.9 mph /  1.4 km/h 2.0 mph /  3.2 km/h 72 % 0.00 in /  0 mm
01:54 35.0 °F /  1.7 °C 27.2 °F /  -2.7 °C 29.98 in /  1015.1 hPa NNE 4.4 mph /  7.1 km/h 7.0 mph /  11.3 km/h 73 % 0.00 in /  0 mm
01:59 34.8 °F /  1.6 °C 25.3 °F /  -3.7 °C 29.99 in /  1015.5 hPa NNW 9.1 mph /  14.6 km/h 14.0 mph /  22.5 km/h 68 % 0.00 in /  0 mm
02:04 34.7 °F /  1.5 °C 24.9 °F /  -3.9 °C 29.99 in /  1015.5 hPa North 4.5 mph /  7.2 km/h 10.4 mph /  16.7 km/h 67 % 0.00 in /  0 mm
02:09 34.6 °F /  1.4 °C 25.1 °F /  -3.8 °C 29.99 in /  1015.5 hPa NNW 5.8 mph /  9.3 km/h 11.5 mph /  18.5 km/h 68 % 0.00 in /  0 mm
02:14 34.5 °F /  1.4 °C 25.0 °F /  -3.9 °C 29.99 in /  1015.5 hPa North 4.8 mph /  7.7 km/h 8.1 mph /  13 km/h 68 % 0.00 in /  0 mm
02:19 34.4 °F /  1.3 °C 24.9 °F /  -3.9 °C 29.99 in /  1015.5 hPa NW 3.9 mph /  6.3 km/h 5.8 mph /  9.3 km/h 68 % 0.00 in /  0 mm
02:24 34.4 °F /  1.3 °C 24.9 °F /  -3.9 °C 29.99 in /  1015.5 hPa North 3.2 mph /  5.1 km/h 7.0 mph /  11.3 km/h 68 % 0.00 in /  0 mm
02:29 34.3 °F /  1.3 °C 24.8 °F /  -4 °C 29.99 in /  1015.5 hPa North 2.9 mph /  4.7 km/h 4.6 mph /  7.4 km/h 68 % 0.00 in /  0 mm
02:34 34.2 °F /  1.2 °C 25.1 °F /  -3.8 °C 30.00 in /  1015.8 hPa North 4.1 mph /  6.6 km/h 5.8 mph /  9.3 km/h 69 % 0.00 in /  0 mm
02:39 34.2 °F /  1.2 °C 25.1 °F /  -3.8 °C 29.99 in /  1015.5 hPa NNE 5.1 mph /  8.2 km/h 11.5 mph /  18.5 km/h 69 % 0.00 in /  0 mm
02:44 34.1 °F /  1.2 °C 25.7 °F /  -3.5 °C 30.00 in /  1015.8 hPa North 5.9 mph /  9.5 km/h 8.1 mph /  13 km/h 71 % 0.00 in /  0 mm
02:49 34.0 °F /  1.1 °C 25.6 °F /  -3.6 °C 30.00 in /  1015.8 hPa North 6.3 mph /  10.1 km/h 8.1 mph /  13 km/h 71 % 0.00 in /  0 mm
02:54 33.9 °F /  1.1 °C 24.8 °F /  -4 °C 30.01 in /  1016.1 hPa North 7.5 mph /  12.1 km/h 11.0 mph /  17.7 km/h 69 % 0.00 in /  0 mm
02:59 33.8 °F /  1 °C 23.6 °F /  -4.7 °C 30.01 in /  1016.1 hPa North 7.0 mph /  11.3 km/h 13.8 mph /  22.2 km/h 66 % 0.00 in /  0 mm
03:04 33.7 °F /  0.9 °C 23.5 °F /  -4.7 °C 30.01 in /  1016.1 hPa NNW 7.0 mph /  11.3 km/h 11.5 mph /  18.5 km/h 66 % 0.00 in /  0 mm
03:10 33.6 °F /  0.9 °C 23.4 °F /  -4.8 °C 30.02 in /  1016.5 hPa North 3.8 mph /  6.1 km/h 13.8 mph /  22.2 km/h 66 % 0.00 in /  0 mm
03:15 33.6 °F /  0.9 °C 23.8 °F /  -4.6 °C 30.02 in /  1016.5 hPa North 6.1 mph /  9.8 km/h 9.0 mph /  14.5 km/h 67 % 0.00 in /  0 mm
03:20 33.5 °F /  0.8 °C 23.7 °F /  -4.6 °C 30.03 in /  1016.8 hPa North 4.2 mph /  6.8 km/h 10.4 mph /  16.7 km/h 67 % 0.00 in /  0 mm
03:25 33.4 °F /  0.8 °C 24.0 °F /  -4.4 °C 30.03 in /  1016.8 hPa NNE 5.0 mph /  8 km/h 10.4 mph /  16.7 km/h 68 % 0.00 in /  0 mm
03:30 33.3 °F /  0.7 °C 23.9 °F /  -4.5 °C 30.03 in /  1016.8 hPa NNW 3.2 mph /  5.1 km/h 5.0 mph /  8 km/h 68 % 0.00 in /  0 mm
03:35 33.2 °F /  0.7 °C 23.8 °F /  -4.6 °C 30.04 in /  1017.2 hPa NNW 6.7 mph /  10.8 km/h 9.2 mph /  14.8 km/h 68 % 0.00 in /  0 mm
03:40 33.0 °F /  0.6 °C 23.9 °F /  -4.5 °C 30.04 in /  1017.2 hPa North 6.1 mph /  9.8 km/h 8.1 mph /  13 km/h 69 % 0.00 in /  0 mm
03:45 32.9 °F /  0.5 °C 22.8 °F /  -5.1 °C 30.04 in /  1017.2 hPa North 7.9 mph /  12.7 km/h 11.5 mph /  18.5 km/h 66 % 0.00 in /  0 mm
03:50 32.8 °F /  0.4 °C 23.0 °F /  -5 °C 30.05 in /  1017.5 hPa NNE 5.7 mph /  9.2 km/h 10.4 mph /  16.7 km/h 67 % 0.00 in /  0 mm
03:55 32.7 °F /  0.4 °C 23.3 °F /  -4.8 °C 30.04 in /  1017.2 hPa NNE 7.9 mph /  12.7 km/h 11.5 mph /  18.5 km/h 68 % 0.00 in /  0 mm
04:00 32.6 °F /  0.3 °C 22.8 °F /  -5.1 °C 30.05 in /  1017.5 hPa North 6.0 mph /  9.7 km/h 9.2 mph /  14.8 km/h 67 % 0.00 in /  0 mm
04:05 32.5 °F /  0.3 °C 22.8 °F /  -5.1 °C 30.05 in /  1017.5 hPa NE 5.2 mph /  8.4 km/h 11.5 mph /  18.5 km/h 67 % 0.00 in /  0 mm
04:10 32.4 °F /  0.2 °C 22.7 °F /  -5.2 °C 30.06 in /  1017.8 hPa NNE 8.1 mph /  13 km/h 9.2 mph /  14.8 km/h 67 % 0.00 in /  0 mm
04:16 32.3 °F /  0.2 °C 22.2 °F /  -5.4 °C 30.06 in /  1017.8 hPa NNE 7.0 mph /  11.3 km/h 14.0 mph /  22.5 km/h 66 % 0.00 in /  0 mm
04:21 32.2 °F /  0.1 °C 22.1 °F /  -5.5 °C 30.06 in /  1017.8 hPa NNE 6.0 mph /  9.7 km/h 12.0 mph /  19.3 km/h 66 % 0.00 in /  0 mm
04:26 32.1 °F /  0.1 °C 22.0 °F /  -5.6 °C 30.06 in /  1017.8 hPa North 6.6 mph /  10.6 km/h 11.5 mph /  18.5 km/h 66 % 0.00 in /  0 mm
04:31 32.0 °F /  0 °C 22.3 °F /  -5.4 °C 30.07 in /  1018.2 hPa NNE 8.2 mph /  13.2 km/h 9.2 mph /  14.8 km/h 67 % 0.00 in /  0 mm
04:36 32.0 °F /  0 °C 22.3 °F /  -5.4 °C 30.08 in /  1018.5 hPa NNE 4.6 mph /  7.4 km/h 11.5 mph /  18.5 km/h 67 % 0.00 in /  0 mm
04:41 31.9 °F /  -0.1 °C 22.5 °F /  -5.3 °C 30.08 in /  1018.5 hPa NNE 4.2 mph /  6.8 km/h 8.1 mph /  13 km/h 68 % 0.00 in /  0 mm
04:46 31.8 °F /  -0.1 °C 21.7 °F /  -5.7 °C 30.08 in /  1018.5 hPa North 7.6 mph /  12.2 km/h 11.5 mph /  18.5 km/h 66 % 0.00 in /  0 mm
04:51 31.8 °F /  -0.1 °C 22.1 °F /  -5.5 °C 30.08 in /  1018.5 hPa North 5.1 mph /  8.2 km/h 8.1 mph /  13 km/h 67 % 0.00 in /  0 mm
04:56 31.7 °F /  -0.2 °C 22.0 °F /  -5.6 °C 30.09 in /  1018.8 hPa NNE 5.4 mph /  8.7 km/h 9.2 mph /  14.8 km/h 67 % 0.00 in /  0 mm
05:01 31.7 °F /  -0.2 °C 22.0 °F /  -5.6 °C 30.09 in /  1018.8 hPa NNE 7.9 mph /  12.7 km/h 11.5 mph /  18.5 km/h 67 % 0.00 in /  0 mm
05:06 31.6 °F /  -0.2 °C 22.2 °F /  -5.4 °C 30.09 in /  1018.8 hPa NNE 4.9 mph /  7.9 km/h 10.0 mph /  16.1 km/h 68 % 0.00 in /  0 mm
05:11 31.5 °F /  -0.3 °C 22.1 °F /  -5.5 °C 30.09 in /  1018.8 hPa NNE 7.4 mph /  11.9 km/h 9.2 mph /  14.8 km/h 68 % 0.00 in /  0 mm
05:16 31.5 °F /  -0.3 °C 22.1 °F /  -5.5 °C 30.09 in /  1018.8 hPa North 7.0 mph /  11.3 km/h 10.0 mph /  16.1 km/h 68 % 0.00 in /  0 mm
05:21 31.4 °F /  -0.3 °C 22.1 °F /  -5.5 °C 30.09 in /  1018.8 hPa North 4.6 mph /  7.4 km/h 7.0 mph /  11.3 km/h 68 % 0.00 in /  0 mm
05:26 31.4 °F /  -0.3 °C 22.4 °F /  -5.3 °C 30.09 in /  1018.8 hPa North 7.0 mph /  11.3 km/h 11.5 mph /  18.5 km/h 69 % 0.00 in /  0 mm
05:31 31.3 °F /  -0.4 °C 22.0 °F /  -5.6 °C 30.10 in /  1019.2 hPa NNE 4.4 mph /  7.1 km/h 9.2 mph /  14.8 km/h 68 % 0.00 in /  0 mm
05:36 31.3 °F /  -0.4 °C 22.3 °F /  -5.4 °C 30.10 in /  1019.2 hPa North 5.2 mph /  8.4 km/h 9.2 mph /  14.8 km/h 69 % 0.00 in /  0 mm
05:41 31.2 °F /  -0.4 °C 22.2 °F /  -5.4 °C 30.10 in /  1019.2 hPa NNE 5.6 mph /  9 km/h 9.2 mph /  14.8 km/h 69 % 0.00 in /  0 mm
05:46 31.1 °F /  -0.5 °C 22.1 °F /  -5.5 °C 30.11 in /  1019.5 hPa NNE 5.0 mph /  8 km/h 9.2 mph /  14.8 km/h 69 % 0.00 in /  0 mm
05:51 31.1 °F /  -0.5 °C 22.1 °F /  -5.5 °C 30.11 in /  1019.5 hPa NNE 5.1 mph /  8.2 km/h 8.1 mph /  13 km/h 69 % 0.00 in /  0 mm
05:57 31.0 °F /  -0.6 °C 22.4 °F /  -5.3 °C 30.12 in /  1019.9 hPa NNE 5.6 mph /  9 km/h 9.2 mph /  14.8 km/h 70 % 0.00 in /  0 mm
06:02 31.0 °F /  -0.6 °C 22.4 °F /  -5.3 °C 30.12 in /  1019.9 hPa North 4.8 mph /  7.7 km/h 8.1 mph /  13 km/h 70 % 0.00 in /  0 mm
06:07 30.9 °F /  -0.6 °C 21.9 °F /  -5.6 °C 30.12 in /  1019.9 hPa NNE 4.8 mph /  7.7 km/h 5.0 mph /  8 km/h 69 % 0.00 in /  0 mm
06:12 30.8 °F /  -0.7 °C 21.8 °F /  -5.7 °C 30.12 in /  1019.9 hPa NE 6.3 mph /  10.1 km/h 10.4 mph /  16.7 km/h 69 % 0.00 in /  0 mm
06:17 30.8 °F /  -0.7 °C 21.8 °F /  -5.7 °C 30.13 in /  1020.2 hPa NNE 3.5 mph /  5.6 km/h 5.8 mph /  9.3 km/h 69 % 0.00 in /  0 mm
06:22 30.7 °F /  -0.7 °C 21.7 °F /  -5.7 °C 30.14 in /  1020.5 hPa NNE 5.2 mph /  8.4 km/h 7.0 mph /  11.3 km/h 69 % 0.00 in /  0 mm
06:27 30.7 °F /  -0.7 °C 21.7 °F /  -5.7 °C 30.14 in /  1020.5 hPa North 4.4 mph /  7.1 km/h 6.9 mph /  11.1 km/h 69 % 0.00 in /  0 mm
06:32 30.6 °F /  -0.8 °C 21.3 °F /  -5.9 °C 30.15 in /  1020.9 hPa NNE 4.9 mph /  7.9 km/h 6.9 mph /  11.1 km/h 68 % 0.00 in /  0 mm
06:37 30.6 °F /  -0.8 °C 21.6 °F /  -5.8 °C 30.14 in /  1020.5 hPa NE 4.5 mph /  7.2 km/h 8.1 mph /  13 km/h 69 % 0.00 in /  0 mm
06:42 30.5 °F /  -0.8 °C 21.5 °F /  -5.8 °C 30.15 in /  1020.9 hPa NNW 4.7 mph /  7.6 km/h 5.8 mph /  9.3 km/h 69 % 0.00 in /  0 mm
06:47 30.5 °F /  -0.8 °C 21.2 °F /  -6 °C 30.15 in /  1020.9 hPa North 2.8 mph /  4.5 km/h 5.8 mph /  9.3 km/h 68 % 0.00 in /  0 mm
06:52 30.5 °F /  -0.8 °C 21.2 °F /  -6 °C 30.15 in /  1020.9 hPa NNE 4.0 mph /  6.4 km/h 6.9 mph /  11.1 km/h 68 % 0.00 in /  0 mm
06:57 30.5 °F /  -0.8 °C 21.5 °F /  -5.8 °C 30.14 in /  1020.5 hPa NNE 4.0 mph /  6.4 km/h 5.8 mph /  9.3 km/h 69 % 0.00 in /  0 mm
07:02 30.6 °F /  -0.8 °C 22.0 °F /  -5.6 °C 30.14 in /  1020.5 hPa NNE 5.3 mph /  8.5 km/h 8.1 mph /  13 km/h 70 % 0.00 in /  0 mm
07:07 30.7 °F /  -0.7 °C 21.7 °F /  -5.7 °C 30.14 in /  1020.5 hPa NNE 5.9 mph /  9.5 km/h 11.5 mph /  18.5 km/h 69 % 0.00 in /  0 mm
07:12 30.8 °F /  -0.7 °C 21.8 °F /  -5.7 °C 30.14 in /  1020.5 hPa North 4.5 mph /  7.2 km/h 8.1 mph /  13 km/h 69 % 0.00 in /  0 mm
07:17 30.9 °F /  -0.6 °C 22.3 °F /  -5.4 °C 30.14 in /  1020.5 hPa NE 4.0 mph /  6.4 km/h 5.8 mph /  9.3 km/h 70 % 0.00 in /  0 mm
07:22 31.0 °F /  -0.6 °C 22.0 °F /  -5.6 °C 30.15 in /  1020.9 hPa NNE 2.5 mph /  4 km/h 4.6 mph /  7.4 km/h 69 % 0.00 in /  0 mm
07:27 31.1 °F /  -0.5 °C 22.5 °F /  -5.3 °C 30.15 in /  1020.9 hPa NNE 5.1 mph /  8.2 km/h 8.1 mph /  13 km/h 70 % 0.00 in /  0 mm
07:32 31.2 °F /  -0.4 °C 22.5 °F /  -5.3 °C 30.16 in /  1021.2 hPa NNE 1.5 mph /  2.4 km/h 3.5 mph /  5.6 km/h 70 % 0.00 in /  0 mm
07:38 31.3 °F /  -0.4 °C 22.3 °F /  -5.4 °C 30.16 in /  1021.2 hPa NNE 3.4 mph /  5.5 km/h 8.1 mph /  13 km/h 69 % 0.00 in /  0 mm
07:43 31.4 °F /  -0.3 °C 22.7 °F /  -5.2 °C 30.17 in /  1021.6 hPa NNE 2.8 mph /  4.5 km/h 3.0 mph /  4.8 km/h 70 % 0.00 in /  0 mm
07:48 31.5 °F /  -0.3 °C 22.8 °F /  -5.1 °C 30.17 in /  1021.6 hPa NNE 3.9 mph /  6.3 km/h 6.0 mph /  9.7 km/h 70 % 0.00 in /  0 mm
07:53 31.7 °F /  -0.2 °C 23.0 °F /  -5 °C 30.17 in /  1021.6 hPa ENE 1.9 mph /  3.1 km/h 4.0 mph /  6.4 km/h 70 % 0.00 in /  0 mm
07:58 31.9 °F /  -0.1 °C 22.9 °F /  -5.1 °C 30.17 in /  1021.6 hPa NNE 2.9 mph /  4.7 km/h 5.8 mph /  9.3 km/h 69 % 0.00 in /  0 mm
08:03 32.0 °F /  0 °C 22.6 °F /  -5.2 °C 30.18 in /  1021.9 hPa NE 2.0 mph /  3.2 km/h 6.9 mph /  11.1 km/h 68 % 0.00 in /  0 mm
08:08 32.2 °F /  0.1 °C 22.8 °F /  -5.1 °C 30.17 in /  1021.6 hPa NNE 4.0 mph /  6.4 km/h 8.1 mph /  13 km/h 68 % 0.00 in /  0 mm
08:13 32.3 °F /  0.2 °C 22.9 °F /  -5.1 °C 30.18 in /  1021.9 hPa NNE 1.7 mph /  2.7 km/h 3.5 mph /  5.6 km/h 68 % 0.00 in /  0 mm
08:18 32.5 °F /  0.3 °C 23.1 °F /  -4.9 °C 30.18 in /  1021.9 hPa NNE 3.0 mph /  4.8 km/h 4.0 mph /  6.4 km/h 68 % 0.00 in /  0 mm
08:23 32.7 °F /  0.4 °C 22.9 °F /  -5.1 °C 30.18 in /  1021.9 hPa NNE 3.2 mph /  5.1 km/h 6.9 mph /  11.1 km/h 67 % 0.00 in /  0 mm
08:28 32.8 °F /  0.4 °C 23.0 °F /  -5 °C 30.18 in /  1021.9 hPa ENE 2.2 mph /  3.5 km/h 3.5 mph /  5.6 km/h 67 % 0.00 in /  0 mm
08:33 33.1 °F /  0.6 °C 23.7 °F /  -4.6 °C 30.18 in /  1021.9 hPa NNE 2.6 mph /  4.2 km/h 3.5 mph /  5.6 km/h 68 % 0.00 in /  0 mm
08:35 33.2 °F /  0.7 °C 23.8 °F /  -4.6 °C 30.17 in /  1021.6 hPa NNE 2.2 mph /  3.5 km/h 3.5 mph /  5.6 km/h 68 % 0.00 in /  0 mm
08:40 33.6 °F /  0.9 °C 23.8 °F /  -4.6 °C 30.18 in /  1021.9 hPa ENE 3.3 mph /  5.3 km/h 5.8 mph /  9.3 km/h 67 % 0.00 in /  0 mm
08:45 33.8 °F /  1 °C 24.0 °F /  -4.4 °C 30.17 in /  1021.6 hPa East 2.5 mph /  4 km/h 5.0 mph /  8 km/h 67 % 0.00 in /  0 mm
08:50 34.2 °F /  1.2 °C 24.7 °F /  -4.1 °C 30.17 in /  1021.6 hPa NE 3.7 mph /  6 km/h 4.0 mph /  6.4 km/h 68 % 0.00 in /  0 mm
08:55 34.4 °F /  1.3 °C 24.2 °F /  -4.3 °C 30.17 in /  1021.6 hPa ENE 4.6 mph /  7.4 km/h 6.9 mph /  11.1 km/h 66 % 0.00 in /  0 mm
09:00 34.5 °F /  1.4 °C 23.6 °F /  -4.7 °C 30.17 in /  1021.6 hPa NNE 5.2 mph /  8.4 km/h 8.1 mph /  13 km/h 64 % 0.00 in /  0 mm
09:06 34.6 °F /  1.4 °C 23.7 °F /  -4.6 °C 30.17 in /  1021.6 hPa NE 3.7 mph /  6 km/h 9.2 mph /  14.8 km/h 64 % 0.00 in /  0 mm
09:11 34.4 °F /  1.3 °C 23.5 °F /  -4.7 °C 30.17 in /  1021.6 hPa ENE 6.0 mph /  9.7 km/h 9.0 mph /  14.5 km/h 64 % 0.00 in /  0 mm
09:16 34.6 °F /  1.4 °C 24.4 °F /  -4.2 °C 30.17 in /  1021.6 hPa NE 2.0 mph /  3.2 km/h 7.0 mph /  11.3 km/h 66 % 0.00 in /  0 mm
09:21 34.8 °F /  1.6 °C 23.9 °F /  -4.5 °C 30.17 in /  1021.6 hPa ENE 3.0 mph /  4.8 km/h 9.0 mph /  14.5 km/h 64 % 0.00 in /  0 mm
09:26 35.0 °F /  1.7 °C 24.4 °F /  -4.2 °C 30.16 in /  1021.2 hPa ENE 6.0 mph /  9.7 km/h 9.0 mph /  14.5 km/h 65 % 0.00 in /  0 mm
09:31 34.9 °F /  1.6 °C 24.3 °F /  -4.3 °C 30.16 in /  1021.2 hPa ENE 3.0 mph /  4.8 km/h 8.0 mph /  12.9 km/h 65 % 0.00 in /  0 mm
09:36 34.7 °F /  1.5 °C 23.8 °F /  -4.6 °C 30.16 in /  1021.2 hPa ENE 3.0 mph /  4.8 km/h 9.0 mph /  14.5 km/h 64 % 0.00 in /  0 mm
09:41 34.8 °F /  1.6 °C 24.6 °F /  -4.1 °C 30.16 in /  1021.2 hPa ENE 5.0 mph /  8 km/h 8.0 mph /  12.9 km/h 66 % 0.00 in /  0 mm
09:46 34.8 °F /  1.6 °C 24.2 °F /  -4.3 °C 30.16 in /  1021.2 hPa ENE 5.0 mph /  8 km/h 8.0 mph /  12.9 km/h 65 % 0.00 in /  0 mm
09:51 34.7 °F /  1.5 °C 24.5 °F /  -4.2 °C 30.16 in /  1021.2 hPa ENE 3.0 mph /  4.8 km/h 7.0 mph /  11.3 km/h 66 % 0.00 in /  0 mm
09:56 34.8 °F /  1.6 °C 24.2 °F /  -4.3 °C 30.17 in /  1021.6 hPa ENE 6.4 mph /  10.3 km/h 8.1 mph /  13 km/h 65 % 0.00 in /  0 mm
10:01 34.8 °F /  1.6 °C 24.6 °F /  -4.1 °C 30.16 in /  1021.2 hPa NNE 2.3 mph /  3.7 km/h 8.1 mph /  13 km/h 66 % 0.00 in /  0 mm
10:06 35.0 °F /  1.7 °C 24.4 °F /  -4.2 °C 30.16 in /  1021.2 hPa ENE 2.7 mph /  4.3 km/h 8.1 mph /  13 km/h 65 % 0.00 in /  0 mm
10:11 35.3 °F /  1.8 °C 24.7 °F /  -4.1 °C 30.16 in /  1021.2 hPa ENE 3.3 mph /  5.3 km/h 8.1 mph /  13 km/h 65 % 0.00 in /  0 mm
10:16 35.2 °F /  1.8 °C 24.6 °F /  -4.1 °C 30.15 in /  1020.9 hPa NE 5.2 mph /  8.4 km/h 8.1 mph /  13 km/h 65 % 0.00 in /  0 mm
10:21 35.2 °F /  1.8 °C 25.0 °F /  -3.9 °C 30.15 in /  1020.9 hPa ENE 4.5 mph /  7.2 km/h 5.8 mph /  9.3 km/h 66 % 0.00 in /  0 mm
10:26 35.3 °F /  1.8 °C 25.1 °F /  -3.8 °C 30.15 in /  1020.9 hPa ENE 5.8 mph /  9.3 km/h 10.0 mph /  16.1 km/h 66 % 0.00 in /  0 mm
10:31 35.3 °F /  1.8 °C 25.1 °F /  -3.8 °C 30.15 in /  1020.9 hPa ENE 4.3 mph /  6.9 km/h 6.9 mph /  11.1 km/h 66 % 0.00 in /  0 mm
10:36 35.3 °F /  1.8 °C 25.1 °F /  -3.8 °C 30.14 in /  1020.5 hPa ENE 5.9 mph /  9.5 km/h 8.0 mph /  12.9 km/h 66 % 0.00 in /  0 mm
10:41 35.1 °F /  1.7 °C 24.5 °F /  -4.2 °C 30.15 in /  1020.9 hPa East 7.3 mph /  11.7 km/h 10.4 mph /  16.7 km/h 65 % 0.00 in /  0 mm
10:46 35.0 °F /  1.7 °C 24.8 °F /  -4 °C 30.14 in /  1020.5 hPa East 4.4 mph /  7.1 km/h 10.4 mph /  16.7 km/h 66 % 0.00 in /  0 mm
10:51 35.2 °F /  1.8 °C 25.7 °F /  -3.5 °C 30.14 in /  1020.5 hPa ENE 6.0 mph /  9.7 km/h 8.1 mph /  13 km/h 68 % 0.00 in /  0 mm
10:56 35.4 °F /  1.9 °C 25.5 °F /  -3.6 °C 30.15 in /  1020.9 hPa ENE 6.1 mph /  9.8 km/h 10.4 mph /  16.7 km/h 67 % 0.00 in /  0 mm
11:01 35.6 °F /  2 °C 25.0 °F /  -3.9 °C 30.14 in /  1020.5 hPa ENE 6.8 mph /  10.9 km/h 9.2 mph /  14.8 km/h 65 % 0.00 in /  0 mm
11:06 35.6 °F /  2 °C 25.0 °F /  -3.9 °C 30.14 in /  1020.5 hPa ENE 5.9 mph /  9.5 km/h 8.1 mph /  13 km/h 65 % 0.00 in /  0 mm
11:12 35.7 °F /  2.1 °C 25.8 °F /  -3.4 °C 30.14 in /  1020.5 hPa ENE 5.7 mph /  9.2 km/h 6.9 mph /  11.1 km/h 67 % 0.00 in /  0 mm
11:17 35.9 °F /  2.2 °C 24.9 °F /  -3.9 °C 30.14 in /  1020.5 hPa NE 4.8 mph /  7.7 km/h 8.1 mph /  13 km/h 64 % 0.00 in /  0 mm
11:22 36.1 °F /  2.3 °C 23.9 °F /  -4.5 °C 30.14 in /  1020.5 hPa East 4.9 mph /  7.9 km/h 9.2 mph /  14.8 km/h 61 % 0.00 in /  0 mm
11:27 36.3 °F /  2.4 °C 24.5 °F /  -4.2 °C 30.14 in /  1020.5 hPa East 6.0 mph /  9.7 km/h 8.1 mph /  13 km/h 62 % 0.00 in /  0 mm
11:32 36.5 °F /  2.5 °C 24.7 °F /  -4.1 °C 30.13 in /  1020.2 hPa East 6.5 mph /  10.5 km/h 9.2 mph /  14.8 km/h 62 % 0.00 in /  0 mm
11:37 36.7 °F /  2.6 °C 24.5 °F /  -4.2 °C 30.13 in /  1020.2 hPa ENE 8.6 mph /  13.8 km/h 11.5 mph /  18.5 km/h 61 % 0.00 in /  0 mm
11:42 36.6 °F /  2.6 °C 24.0 °F /  -4.4 °C 30.13 in /  1020.2 hPa East 6.1 mph /  9.8 km/h 9.2 mph /  14.8 km/h 60 % 0.00 in /  0 mm
11:47 36.2 °F /  2.3 °C 23.2 °F /  -4.9 °C 30.13 in /  1020.2 hPa ENE 6.9 mph /  11.1 km/h 9.2 mph /  14.8 km/h 59 % 0.00 in /  0 mm
11:52 36.2 °F /  2.3 °C 24.0 °F /  -4.4 °C 30.13 in /  1020.2 hPa East 4.2 mph /  6.8 km/h 5.8 mph /  9.3 km/h 61 % 0.00 in /  0 mm
11:57 36.0 °F /  2.2 °C 22.2 °F /  -5.4 °C 30.13 in /  1020.2 hPa ENE 6.9 mph /  11.1 km/h 9.2 mph /  14.8 km/h 57 % 0.00 in /  0 mm
12:02 35.7 °F /  2.1 °C 21.9 °F /  -5.6 °C 30.13 in /  1020.2 hPa ENE 6.0 mph /  9.7 km/h 7.0 mph /  11.3 km/h 57 % 0.00 in /  0 mm
12:07 35.5 °F /  1.9 °C 23.0 °F /  -5 °C 30.12 in /  1019.9 hPa East 5.5 mph /  8.9 km/h 10.4 mph /  16.7 km/h 60 % 0.00 in /  0 mm
12:12 35.2 °F /  1.8 °C 22.3 °F /  -5.4 °C 30.12 in /  1019.9 hPa ENE 6.4 mph /  10.3 km/h 8.1 mph /  13 km/h 59 % 0.00 in /  0 mm
12:17 35.0 °F /  1.7 °C 22.5 °F /  -5.3 °C 30.11 in /  1019.5 hPa ENE 5.8 mph /  9.3 km/h 10.4 mph /  16.7 km/h 60 % 0.00 in /  0 mm
12:22 34.9 °F /  1.6 °C 22.4 °F /  -5.3 °C 30.11 in /  1019.5 hPa East 5.6 mph /  9 km/h 8.1 mph /  13 km/h 60 % 0.00 in /  0 mm
12:27 35.1 °F /  1.7 °C 23.0 °F /  -5 °C 30.10 in /  1019.2 hPa ENE 6.5 mph /  10.5 km/h 8.1 mph /  13 km/h 61 % 0.00 in /  0 mm
12:32 35.3 °F /  1.8 °C 22.8 °F /  -5.1 °C 30.09 in /  1018.8 hPa ENE 5.6 mph /  9 km/h 8.1 mph /  13 km/h 60 % 0.00 in /  0 mm
12:37 35.6 °F /  2 °C 24.2 °F /  -4.3 °C 30.10 in /  1019.2 hPa ENE 5.1 mph /  8.2 km/h 8.0 mph /  12.9 km/h 63 % 0.00 in /  0 mm
12:42 35.9 °F /  2.2 °C 23.7 °F /  -4.6 °C 30.10 in /  1019.2 hPa ENE 5.6 mph /  9 km/h 10.0 mph /  16.1 km/h 61 % 0.00 in /  0 mm
12:47 35.9 °F /  2.2 °C 24.1 °F /  -4.4 °C 30.11 in /  1019.5 hPa ENE 5.1 mph /  8.2 km/h 5.8 mph /  9.3 km/h 62 % 0.00 in /  0 mm
12:53 36.0 °F /  2.2 °C 23.4 °F /  -4.8 °C 30.09 in /  1018.8 hPa ENE 7.2 mph /  11.6 km/h 10.4 mph /  16.7 km/h 60 % 0.00 in /  0 mm
12:58 35.9 °F /  2.2 °C 24.5 °F /  -4.2 °C 30.10 in /  1019.2 hPa ENE 3.5 mph /  5.6 km/h 5.8 mph /  9.3 km/h 63 % 0.00 in /  0 mm
13:03 36.1 °F /  2.3 °C 23.9 °F /  -4.5 °C 30.10 in /  1019.2 hPa ENE 4.0 mph /  6.4 km/h 8.1 mph /  13 km/h 61 % 0.00 in /  0 mm
13:08 36.4 °F /  2.4 °C 24.6 °F /  -4.1 °C 30.10 in /  1019.2 hPa ENE 3.7 mph /  6 km/h 6.9 mph /  11.1 km/h 62 % 0.00 in /  0 mm
13:13 36.4 °F /  2.4 °C 24.2 °F /  -4.3 °C 30.09 in /  1018.8 hPa NE 5.4 mph /  8.7 km/h 8.1 mph /  13 km/h 61 % 0.00 in /  0 mm
13:18 36.5 °F /  2.5 °C 24.7 °F /  -4.1 °C 30.08 in /  1018.5 hPa ENE 7.9 mph /  12.7 km/h 9.2 mph /  14.8 km/h 62 % 0.00 in /  0 mm
13:23 36.3 °F /  2.4 °C 24.5 °F /  -4.2 °C 30.07 in /  1018.2 hPa East 5.2 mph /  8.4 km/h 9.2 mph /  14.8 km/h 62 % 0.00 in /  0 mm
13:28 36.5 °F /  2.5 °C 25.1 °F /  -3.8 °C 30.07 in /  1018.2 hPa ENE 5.1 mph /  8.2 km/h 9.2 mph /  14.8 km/h 63 % 0.00 in /  0 mm
13:33 36.5 °F /  2.5 °C 25.1 °F /  -3.8 °C 30.06 in /  1017.8 hPa East 2.5 mph /  4 km/h 6.0 mph /  9.7 km/h 63 % 0.00 in /  0 mm
13:38 36.3 °F /  2.4 °C 25.3 °F /  -3.7 °C 30.07 in /  1018.2 hPa ENE 7.5 mph /  12.1 km/h 11.0 mph /  17.7 km/h 64 % 0.00 in /  0 mm
13:43 36.4 °F /  2.4 °C 25.4 °F /  -3.7 °C 30.08 in /  1018.5 hPa East 2.1 mph /  3.4 km/h 4.6 mph /  7.4 km/h 64 % 0.00 in /  0 mm
13:48 36.5 °F /  2.5 °C 25.5 °F /  -3.6 °C 30.08 in /  1018.5 hPa ENE 5.0 mph /  8 km/h 8.1 mph /  13 km/h 64 % 0.00 in /  0 mm
13:53 36.7 °F /  2.6 °C 25.7 °F /  -3.5 °C 30.08 in /  1018.5 hPa South 4.2 mph /  6.8 km/h 5.0 mph /  8 km/h 64 % 0.00 in /  0 mm
13:58 37.1 °F /  2.8 °C 25.3 °F /  -3.7 °C 30.08 in /  1018.5 hPa SE 3.1 mph /  5 km/h 9.2 mph /  14.8 km/h 62 % 0.00 in /  0 mm
14:03 37.6 °F /  3.1 °C 24.6 °F /  -4.1 °C 30.08 in /  1018.5 hPa SE 7.3 mph /  11.7 km/h 11.5 mph /  18.5 km/h 59 % 0.00 in /  0 mm
14:08 37.9 °F /  3.3 °C 25.2 °F /  -3.8 °C 30.08 in /  1018.5 hPa SSW 2.2 mph /  3.5 km/h 4.6 mph /  7.4 km/h 60 % 0.00 in /  0 mm
14:13 38.2 °F /  3.4 °C 25.1 °F /  -3.8 °C 30.09 in /  1018.8 hPa SSW 5.0 mph /  8 km/h 10.4 mph /  16.7 km/h 59 % 0.00 in /  0 mm
14:18 38.2 °F /  3.4 °C 24.7 °F /  -4.1 °C 30.08 in /  1018.5 hPa SE 2.4 mph /  3.9 km/h 6.9 mph /  11.1 km/h 58 % 0.00 in /  0 mm
14:24 38.2 °F /  3.4 °C 25.1 °F /  -3.8 °C 30.09 in /  1018.8 hPa South 4.1 mph /  6.6 km/h 10.4 mph /  16.7 km/h 59 % 0.00 in /  0 mm
14:29 38.2 °F /  3.4 °C 25.1 °F /  -3.8 °C 30.09 in /  1018.8 hPa SE 3.7 mph /  6 km/h 9.2 mph /  14.8 km/h 59 % 0.00 in /  0 mm
14:34 38.2 °F /  3.4 °C 25.1 °F /  -3.8 °C 30.10 in /  1019.2 hPa SSE 2.7 mph /  4.3 km/h 5.8 mph /  9.3 km/h 59 % 0.00 in /  0 mm
14:39 38.2 °F /  3.4 °C 25.1 °F /  -3.8 °C 30.10 in /  1019.2 hPa SSE 5.0 mph /  8 km/h 6.9 mph /  11.1 km/h 59 % 0.00 in /  0 mm
14:44 38.1 °F /  3.4 °C 25.0 °F /  -3.9 °C 30.11 in /  1019.5 hPa SE 5.4 mph /  8.7 km/h 8.1 mph /  13 km/h 59 % 0.00 in /  0 mm
14:49 38.1 °F /  3.4 °C 25.4 °F /  -3.7 °C 30.10 in /  1019.2 hPa SSE 3.9 mph /  6.3 km/h 8.0 mph /  12.9 km/h 60 % 0.00 in /  0 mm
14:54 38.0 °F /  3.3 °C 25.3 °F /  -3.7 °C 30.09 in /  1018.8 hPa SSE 2.3 mph /  3.7 km/h 4.0 mph /  6.4 km/h 60 % 0.00 in /  0 mm
14:59 37.9 °F /  3.3 °C 24.8 °F /  -4 °C 30.08 in /  1018.5 hPa South 1.5 mph /  2.4 km/h 4.0 mph /  6.4 km/h 59 % 0.00 in /  0 mm
15:04 37.8 °F /  3.2 °C 25.5 °F /  -3.6 °C 30.08 in /  1018.5 hPa South 4.6 mph /  7.4 km/h 6.9 mph /  11.1 km/h 61 % 0.00 in /  0 mm
15:09 37.7 °F /  3.2 °C 25.8 °F /  -3.4 °C 30.08 in /  1018.5 hPa SSE 4.2 mph /  6.8 km/h 6.0 mph /  9.7 km/h 62 % 0.00 in /  0 mm
15:14 37.5 °F /  3.1 °C 25.7 °F /  -3.5 °C 30.08 in /  1018.5 hPa SE 5.1 mph /  8.2 km/h 6.9 mph /  11.1 km/h 62 % 0.00 in /  0 mm
15:19 37.4 °F /  3 °C 25.6 °F /  -3.6 °C 30.08 in /  1018.5 hPa SSE 1.6 mph /  2.6 km/h 3.5 mph /  5.6 km/h 62 % 0.00 in /  0 mm
15:24 37.4 °F /  3 °C 25.9 °F /  -3.4 °C 30.07 in /  1018.2 hPa SSE 1.5 mph /  2.4 km/h 6.9 mph /  11.1 km/h 63 % 0.00 in /  0 mm
15:29 37.3 °F /  2.9 °C 26.2 °F /  -3.2 °C 30.07 in /  1018.2 hPa SSE 3.0 mph /  4.8 km/h 5.8 mph /  9.3 km/h 64 % 0.00 in /  0 mm
15:34 37.2 °F /  2.9 °C 26.1 °F /  -3.3 °C 30.07 in /  1018.2 hPa South 1.3 mph /  2.1 km/h 3.5 mph /  5.6 km/h 64 % 0.00 in /  0 mm
15:39 37.2 °F /  2.9 °C 26.1 °F /  -3.3 °C 30.07 in /  1018.2 hPa SSE 2.2 mph /  3.5 km/h 3.5 mph /  5.6 km/h 64 % 0.00 in /  0 mm
15:44 37.1 °F /  2.8 °C 26.4 °F /  -3.1 °C 30.06 in /  1017.8 hPa SE 3.1 mph /  5 km/h 4.0 mph /  6.4 km/h 65 % 0.00 in /  0 mm
15:49 37.1 °F /  2.8 °C 26.4 °F /  -3.1 °C 30.06 in /  1017.8 hPa SSE 2.8 mph /  4.5 km/h 4.6 mph /  7.4 km/h 65 % 0.00 in /  0 mm
15:54 37.1 °F /  2.8 °C 26.8 °F /  -2.9 °C 30.06 in /  1017.8 hPa Calm   3.5 mph /  5.6 km/h 66 % 0.00 in /  0 mm
16:00 37.0 °F /  2.8 °C 26.7 °F /  -2.9 °C 30.06 in /  1017.8 hPa SSE 0.3 mph /  0.5 km/h 3.5 mph /  5.6 km/h 66 % 0.00 in /  0 mm
16:05 36.9 °F /  2.7 °C 27.0 °F /  -2.8 °C 30.00 in /  1015.8 hPa SSE 7.3 mph /  11.7 km/h 10.4 mph /  16.7 km/h 67 % 0.00 in /  0 mm
16:10 36.8 °F /  2.7 °C 26.9 °F /  -2.8 °C 29.98 in /  1015.1 hPa SE 4.7 mph /  7.6 km/h 8.1 mph /  13 km/h 67 % 0.00 in /  0 mm
16:15 36.7 °F /  2.6 °C 27.1 °F /  -2.7 °C 29.97 in /  1014.8 hPa SE 4.8 mph /  7.7 km/h 9.2 mph /  14.8 km/h 68 % 0.00 in /  0 mm
16:20 36.6 °F /  2.6 °C 27.4 °F /  -2.6 °C 29.97 in /  1014.8 hPa ESE 6.7 mph /  10.8 km/h 9.2 mph /  14.8 km/h 69 % 0.00 in /  0 mm
16:25 36.6 °F /  2.6 °C 27.7 °F /  -2.4 °C 29.97 in /  1014.8 hPa SE 2.6 mph /  4.2 km/h 6.9 mph /  11.1 km/h 70 % 0.00 in /  0 mm
16:30 36.6 °F /  2.6 °C 28.1 °F /  -2.2 °C 29.98 in /  1015.1 hPa ESE 2.9 mph /  4.7 km/h 5.8 mph /  9.3 km/h 71 % 0.00 in /  0 mm
16:35 36.6 °F /  2.6 °C 28.1 °F /  -2.2 °C 29.99 in /  1015.5 hPa East 4.6 mph /  7.4 km/h 5.8 mph /  9.3 km/h 71 % 0.00 in /  0 mm
16:40 36.6 °F /  2.6 °C 28.1 °F /  -2.2 °C 30.01 in /  1016.1 hPa SE 1.2 mph /  1.9 km/h 2.3 mph /  3.7 km/h 71 % 0.00 in /  0 mm
16:45 36.7 °F /  2.6 °C 28.2 °F /  -2.1 °C 30.01 in /  1016.1 hPa WSW 3.0 mph /  4.8 km/h 4.0 mph /  6.4 km/h 71 % 0.00 in /  0 mm
16:50 36.7 °F /  2.6 °C 28.5 °F /  -1.9 °C 30.02 in /  1016.5 hPa WSW 1.0 mph /  1.6 km/h 2.3 mph /  3.7 km/h 72 % 0.00 in /  0 mm
16:55 36.7 °F /  2.6 °C 28.5 °F /  -1.9 °C 30.02 in /  1016.5 hPa Calm     72 % 0.00 in /  0 mm
17:00 36.8 °F /  2.7 °C 28.6 °F /  -1.9 °C 30.02 in /  1016.5 hPa Calm     72 % 0.00 in /  0 mm
17:06 36.8 °F /  2.7 °C 28.6 °F /  -1.9 °C 30.02 in /  1016.5 hPa Calm     72 % 0.00 in /  0 mm
17:10 36.9 °F /  2.7 °C 29.0 °F /  -1.7 °C 30.01 in /  1016.1 hPa Calm   2.0 mph /  3.2 km/h 73 % 0.00 in /  0 mm
17:15 37.0 °F /  2.8 °C 29.1 °F /  -1.6 °C 30.01 in /  1016.1 hPa SSW 0.7 mph /  1.1 km/h 3.5 mph /  5.6 km/h 73 % 0.00 in /  0 mm
17:20 37.0 °F /  2.8 °C 29.5 °F /  -1.4 °C 30.01 in /  1016.1 hPa SSW 1.0 mph /  1.6 km/h 3.0 mph /  4.8 km/h 74 % 0.00 in /  0 mm
17:25 37.1 °F /  2.8 °C 29.9 °F /  -1.2 °C 30.01 in /  1016.1 hPa South 1.4 mph /  2.3 km/h 3.0 mph /  4.8 km/h 75 % 0.00 in /  0 mm
17:31 37.1 °F /  2.8 °C 30.9 °F /  -0.6 °C 30.01 in /  1016.1 hPa South 1.0 mph /  1.6 km/h 6.0 mph /  9.7 km/h 78 % 0.00 in /  0 mm
17:35 36.9 °F /  2.7 °C 31.6 °F /  -0.2 °C 30.01 in /  1016.1 hPa SSE 3.0 mph /  4.8 km/h 9.0 mph /  14.5 km/h 81 % 0.00 in /  0 mm
17:40 36.6 °F /  2.6 °C 31.6 °F /  -0.2 °C 30.01 in /  1016.1 hPa SSE 2.0 mph /  3.2 km/h 6.0 mph /  9.7 km/h 82 % 0.00 in /  0 mm
17:46 36.4 °F /  2.4 °C 32.0 °F /  0 °C 30.01 in /  1016.1 hPa SE 1.0 mph /  1.6 km/h 5.0 mph /  8 km/h 84 % 0.00 in /  0 mm
17:50 36.2 °F /  2.3 °C 31.8 °F /  -0.1 °C 30.01 in /  1016.1 hPa Calm   2.0 mph /  3.2 km/h 84 % 0.00 in /  0 mm
17:56 36.0 °F /  2.2 °C 31.6 °F /  -0.2 °C 30.01 in /  1016.1 hPa Calm     84 % 0.00 in /  0 mm
18:01 35.7 °F /  2.1 °C 31.6 °F /  -0.2 °C 30.00 in /  1015.8 hPa Calm     85 % 0.00 in /  0 mm
18:06 35.5 °F /  1.9 °C 31.7 °F /  -0.2 °C 30.00 in /  1015.8 hPa Calm     86 % 0.00 in /  0 mm
18:11 35.2 °F /  1.8 °C 31.7 °F /  -0.2 °C 30.00 in /  1015.8 hPa Calm     87 % 0.00 in /  0 mm
18:16 35.0 °F /  1.7 °C 31.5 °F /  -0.3 °C 29.99 in /  1015.5 hPa Calm     87 % 0.00 in /  0 mm
18:21 34.8 °F /  1.6 °C 31.6 °F /  -0.2 °C 29.99 in /  1015.5 hPa Calm     88 % 0.00 in /  0 mm
18:26 34.6 °F /  1.4 °C 31.7 °F /  -0.2 °C 29.99 in /  1015.5 hPa Calm     89 % 0.00 in /  0 mm
18:31 34.4 °F /  1.3 °C 31.5 °F /  -0.3 °C 29.99 in /  1015.5 hPa Calm     89 % 0.00 in /  0 mm
18:36 34.3 °F /  1.3 °C 31.7 °F /  -0.2 °C 30.00 in /  1015.8 hPa Calm     90 % 0.00 in /  0 mm
18:41 34.2 °F /  1.2 °C 31.6 °F /  -0.2 °C 29.99 in /  1015.5 hPa Calm     90 % 0.00 in /  0 mm
18:46 34.1 °F /  1.2 °C 31.5 °F /  -0.3 °C 29.99 in /  1015.5 hPa Calm     90 % 0.00 in /  0 mm
18:51 34.0 °F /  1.1 °C 31.4 °F /  -0.3 °C 29.98 in /  1015.1 hPa Calm     90 % 0.00 in /  0 mm
18:56 33.9 °F /  1.1 °C 31.3 °F /  -0.4 °C 29.97 in /  1014.8 hPa Calm     90 % 0.00 in /  0 mm
19:01 33.8 °F /  1 °C 31.5 °F /  -0.3 °C 29.96 in /  1014.4 hPa Calm     91 % 0.00 in /  0 mm
19:07 33.7 °F /  0.9 °C 31.4 °F /  -0.3 °C 29.96 in /  1014.4 hPa Calm     91 % 0.01 in /  0.25 mm
19:12 33.7 °F /  0.9 °C 31.4 °F /  -0.3 °C 29.95 in /  1014.1 hPa Calm   1.2 mph /  1.9 km/h 91 % 0.01 in /  0.25 mm
19:17 33.5 °F /  0.8 °C 31.4 °F /  -0.3 °C 29.95 in /  1014.1 hPa Calm     92 % 0.01 in /  0.25 mm
19:22 33.5 °F /  0.8 °C 31.4 °F /  -0.3 °C 29.95 in /  1014.1 hPa Calm     92 % 0.02 in /  0.51 mm
19:27 33.4 °F /  0.8 °C 31.3 °F /  -0.4 °C 29.95 in /  1014.1 hPa Calm     92 % 0.02 in /  0.51 mm
19:32 33.4 °F /  0.8 °C 31.6 °F /  -0.2 °C 29.95 in /  1014.1 hPa Calm     93 % 0.02 in /  0.51 mm
19:37 33.4 °F /  0.8 °C 31.6 °F /  -0.2 °C 29.95 in /  1014.1 hPa Calm     93 % 0.02 in /  0.51 mm
19:42 33.3 °F /  0.7 °C 31.5 °F /  -0.3 °C 29.95 in /  1014.1 hPa Calm     93 % 0.03 in /  0.76 mm
19:47 33.3 °F /  0.7 °C 31.5 °F /  -0.3 °C 29.94 in /  1013.8 hPa Calm     93 % 0.03 in /  0.76 mm
19:52 33.2 °F /  0.7 °C 31.4 °F /  -0.3 °C 29.93 in /  1013.4 hPa Calm     93 % 0.04 in /  1.02 mm
19:57 33.2 °F /  0.7 °C 31.7 °F /  -0.2 °C 29.93 in /  1013.4 hPa Calm     94 % 0.04 in /  1.02 mm
20:02 33.2 °F /  0.7 °C 31.7 °F /  -0.2 °C 29.92 in /  1013.1 hPa Calm     94 % 0.04 in /  1.02 mm
20:07 33.2 °F /  0.7 °C 31.7 °F /  -0.2 °C 29.92 in /  1013.1 hPa Calm     94 % 0.04 in /  1.02 mm
20:12 33.2 °F /  0.7 °C 31.7 °F /  -0.2 °C 29.91 in /  1012.8 hPa Calm     94 % 0.05 in /  1.27 mm
20:17 33.1 °F /  0.6 °C 31.6 °F /  -0.2 °C 29.91 in /  1012.8 hPa Calm     94 % 0.05 in /  1.27 mm
20:22 33.1 °F /  0.6 °C 31.8 °F /  -0.1 °C 29.92 in /  1013.1 hPa Calm     95 % 0.05 in /  1.27 mm
20:28 33.1 °F /  0.6 °C 31.8 °F /  -0.1 °C 29.91 in /  1012.8 hPa Calm     95 % 0.05 in /  1.27 mm
20:33 33.1 °F /  0.6 °C 31.8 °F /  -0.1 °C 29.91 in /  1012.8 hPa Calm     95 % 0.06 in /  1.52 mm
20:38 33.1 °F /  0.6 °C 31.8 °F /  -0.1 °C 29.90 in /  1012.4 hPa Calm     95 % 0.07 in /  1.78 mm
20:43 33.1 °F /  0.6 °C 31.8 °F /  -0.1 °C 29.90 in /  1012.4 hPa Calm     95 % 0.06 in /  1.52 mm
20:48 33.0 °F /  0.6 °C 31.7 °F /  -0.2 °C 29.89 in /  1012.1 hPa Calm     95 % 0.08 in /  2.03 mm
20:53 33.0 °F /  0.6 °C 31.7 °F /  -0.2 °C 29.89 in /  1012.1 hPa Calm     95 % 0.08 in /  2.03 mm
20:58 33.0 °F /  0.6 °C 31.7 °F /  -0.2 °C 29.88 in /  1011.7 hPa Calm     95 % 0.10 in /  2.54 mm
21:03 33.0 °F /  0.6 °C 31.7 °F /  -0.2 °C 29.88 in /  1011.7 hPa Calm     95 % 0.10 in /  2.54 mm
21:08 33.1 °F /  0.6 °C 31.8 °F /  -0.1 °C 29.87 in /  1011.4 hPa Calm     95 % 0.11 in /  2.79 mm
21:13 33.1 °F /  0.6 °C 31.8 °F /  -0.1 °C 29.86 in /  1011.1 hPa Calm     95 % 0.11 in /  2.79 mm
21:18 33.1 °F /  0.6 °C 31.8 °F /  -0.1 °C 29.86 in /  1011.1 hPa Calm     95 % 0.13 in /  3.3 mm
21:23 33.1 °F /  0.6 °C 32.1 °F /  0.1 °C 29.85 in /  1010.7 hPa Calm     96 % 0.13 in /  3.3 mm
21:28 33.1 °F /  0.6 °C 32.1 °F /  0.1 °C 29.84 in /  1010.4 hPa Calm     96 % 0.14 in /  3.56 mm
21:33 33.2 °F /  0.7 °C 32.2 °F /  0.1 °C 29.84 in /  1010.4 hPa SE 1.4 mph /  2.3 km/h 3.5 mph /  5.6 km/h 96 % 0.14 in /  3.56 mm
21:38 33.2 °F /  0.7 °C 32.2 °F /  0.1 °C 29.83 in /  1010 hPa SE 0.8 mph /  1.3 km/h 2.0 mph /  3.2 km/h 96 % 0.13 in /  3.3 mm
21:43 33.2 °F /  0.7 °C 32.2 °F /  0.1 °C 29.83 in /  1010 hPa SE 0.3 mph /  0.5 km/h 1.2 mph /  1.9 km/h 96 % 0.14 in /  3.56 mm
21:48 33.2 °F /  0.7 °C 32.2 °F /  0.1 °C 29.83 in /  1010 hPa SE 0.8 mph /  1.3 km/h 3.0 mph /  4.8 km/h 96 % 0.13 in /  3.3 mm
21:53 33.2 °F /  0.7 °C 32.2 °F /  0.1 °C 29.82 in /  1009.7 hPa SE 1.4 mph /  2.3 km/h 2.3 mph /  3.7 km/h 96 % 0.13 in /  3.3 mm
21:59 33.2 °F /  0.7 °C 32.2 °F /  0.1 °C 29.82 in /  1009.7 hPa SE 0.6 mph /  1 km/h 2.3 mph /  3.7 km/h 96 % 0.11 in /  2.79 mm
22:04 33.2 °F /  0.7 °C 32.2 °F /  0.1 °C 29.81 in /  1009.4 hPa SE 0.6 mph /  1 km/h 2.3 mph /  3.7 km/h 96 % 0.11 in /  2.79 mm
22:09 33.2 °F /  0.7 °C 32.2 °F /  0.1 °C 29.81 in /  1009.4 hPa Calm   2.3 mph /  3.7 km/h 96 % 0.10 in /  2.54 mm
22:14 33.1 °F /  0.6 °C 32.1 °F /  0.1 °C 29.81 in /  1009.4 hPa Calm     96 % 0.09 in /  2.29 mm
22:19 33.1 °F /  0.6 °C 32.1 °F /  0.1 °C 29.80 in /  1009 hPa Calm     96 % 0.08 in /  2.03 mm
22:24 33.1 °F /  0.6 °C 32.1 °F /  0.1 °C 29.80 in /  1009 hPa Calm     96 % 0.08 in /  2.03 mm
22:29 33.1 °F /  0.6 °C 32.1 °F /  0.1 °C 29.80 in /  1009 hPa Calm     96 % 0.07 in /  1.78 mm
22:34 33.1 °F /  0.6 °C 32.1 °F /  0.1 °C 29.80 in /  1009 hPa Calm     96 % 0.06 in /  1.52 mm
22:39 33.0 °F /  0.6 °C 32.0 °F /  0 °C 29.80 in /  1009 hPa Calm     96 % 0.06 in /  1.52 mm
22:44 33.0 °F /  0.6 °C 32.0 °F /  0 °C 29.80 in /  1009 hPa Calm     96 % 0.06 in /  1.52 mm
22:49 33.1 °F /  0.6 °C 32.1 °F /  0.1 °C 29.80 in /  1009 hPa Calm     96 % 0.06 in /  1.52 mm
22:54 33.0 °F /  0.6 °C 32.0 °F /  0 °C 29.79 in /  1008.7 hPa Calm     96 % 0.05 in /  1.27 mm
22:59 33.0 °F /  0.6 °C 32.0 °F /  0 °C 29.79 in /  1008.7 hPa Calm     96 % 0.06 in /  1.52 mm
23:04 33.0 °F /  0.6 °C 32.0 °F /  0 °C 29.78 in /  1008.4 hPa Calm     96 % 0.06 in /  1.52 mm
23:09 33.0 °F /  0.6 °C 32.0 °F /  0 °C 29.78 in /  1008.4 hPa Calm     96 % 0.06 in /  1.52 mm
23:14 33.0 °F /  0.6 °C 32.0 °F /  0 °C 29.78 in /  1008.4 hPa Calm     96 % 0.06 in /  1.52 mm
23:19 33.0 °F /  0.6 °C 32.0 °F /  0 °C 29.77 in /  1008 hPa Calm     96 % 0.07 in /  1.78 mm
23:24 33.0 °F /  0.6 °C 32.0 °F /  0 °C 29.78 in /  1008.4 hPa Calm     96 % 0.06 in /  1.52 mm
23:29 33.0 °F /  0.6 °C 32.0 °F /  0 °C 29.77 in /  1008 hPa Calm     96 % 0.07 in /  1.78 mm
23:34 33.0 °F /  0.6 °C 32.0 °F /  0 °C 29.77 in /  1008 hPa Calm     96 % 0.07 in /  1.78 mm
23:40 33.0 °F /  0.6 °C 32.0 °F /  0 °C 29.76 in /  1007.7 hPa Calm     96 % 0.07 in /  1.78 mm
23:45 33.0 °F /  0.6 °C 32.0 °F /  0 °C 29.76 in /  1007.7 hPa Calm     96 % 0.07 in /  1.78 mm
23:50 33.0 °F /  0.6 °C 32.0 °F /  0 °C 29.76 in /  1007.7 hPa Calm     96 % 0.06 in /  1.52 mm
23:55 33.0 °F /  0.6 °C 32.2 °F /  0.1 °C 29.76 in /  1007.7 hPa Calm     97 % 0.06 in /  1.52 mm
Crab Meadow Weather
Compliments of Weather Underground - 3 mb

Script developed by  Jim McMurry - jmcmurry@mwt.net Adapted for the template by  Wim van der Kuil - Leuven-Template.eu

Astronomy: Neptune has at least 11 moons.